createdAt,value
2022-11-19T00:00:03.747Z,-1.44
2022-11-19T00:01:03.745Z,-1.44
2022-11-19T00:02:03.813Z,-1.44
2022-11-19T00:03:03.826Z,-1.44
2022-11-19T00:04:03.818Z,-1.50
2022-11-19T00:05:03.921Z,-1.50
2022-11-19T00:06:03.909Z,-1.50
2022-11-19T00:07:04.098Z,-1.50
2022-11-19T00:08:03.981Z,-1.50
2022-11-19T00:09:04.061Z,-1.50
2022-11-19T00:10:04.067Z,-1.50
2022-11-19T00:11:08.200Z,-1.44
2022-11-19T00:12:03.989Z,-1.44
2022-11-19T00:13:03.905Z,-1.50
2022-11-19T00:14:03.899Z,-1.50
2022-11-19T00:15:03.994Z,-1.44
2022-11-19T00:16:03.988Z,-1.50
2022-11-19T00:17:04.155Z,-1.50
2022-11-19T00:18:04.142Z,-1.50
2022-11-19T00:19:04.145Z,-1.50
2022-11-19T00:20:04.158Z,-1.50
2022-11-19T00:21:04.063Z,-1.56
2022-11-19T00:22:04.151Z,-1.56
2022-11-19T00:23:04.146Z,-1.56
2022-11-19T00:24:04.226Z,-1.56
2022-11-19T00:25:04.311Z,-1.56
2022-11-19T00:26:04.222Z,-1.56
2022-11-19T00:27:04.305Z,-1.56
2022-11-19T00:28:04.388Z,-1.56
2022-11-19T00:29:04.321Z,-1.56
2022-11-19T00:30:10.929Z,-1.56
2022-11-19T00:31:04.339Z,-1.62
2022-11-19T00:32:04.332Z,-1.69
2022-11-19T00:33:04.308Z,-1.69
2022-11-19T00:34:04.305Z,-1.69
2022-11-19T00:35:04.310Z,-1.69
2022-11-19T00:36:04.391Z,-1.69
2022-11-19T00:37:03.508Z,-1.62
2022-11-19T00:38:03.607Z,-1.62
2022-11-19T00:39:03.585Z,-1.62
2022-11-19T00:40:03.670Z,-1.62
2022-11-19T00:41:03.595Z,-1.62
2022-11-19T00:42:03.677Z,-1.62
2022-11-19T00:43:03.658Z,-1.62
2022-11-19T00:44:03.586Z,-1.62
2022-11-19T00:45:03.666Z,-1.62
2022-11-19T00:46:03.668Z,-1.62
2022-11-19T00:47:03.755Z,-1.62
2022-11-19T00:48:03.745Z,-1.56
2022-11-19T00:49:03.755Z,-1.62
2022-11-19T00:50:03.750Z,-1.69
2022-11-19T00:51:03.753Z,-1.62
2022-11-19T00:52:03.745Z,-1.62
2022-11-19T00:53:03.748Z,-1.62
2022-11-19T00:54:03.669Z,-1.62
2022-11-19T00:55:03.748Z,-1.62
2022-11-19T00:56:03.742Z,-1.62
2022-11-19T00:57:03.824Z,-1.62
2022-11-19T00:58:03.778Z,-1.62
2022-11-19T00:59:03.780Z,-1.62
2022-11-19T01:00:03.829Z,-1.69
2022-11-19T01:01:03.919Z,-1.69
2022-11-19T01:02:03.993Z,-1.69
2022-11-19T01:03:03.985Z,-1.62
2022-11-19T01:04:04.005Z,-1.69
2022-11-19T01:05:04.096Z,-1.69
2022-11-19T01:06:04.230Z,-1.69
2022-11-19T01:07:04.304Z,-1.69
2022-11-19T01:08:04.228Z,-1.69
2022-11-19T01:09:04.320Z,-1.69
2022-11-19T01:10:04.488Z,-1.69
2022-11-19T01:11:03.598Z,-1.69
2022-11-19T01:12:03.594Z,-1.69
2022-11-19T01:13:03.507Z,-1.69
2022-11-19T01:14:03.597Z,-1.69
2022-11-19T01:15:03.502Z,-1.69
2022-11-19T01:16:03.591Z,-1.69
2022-11-19T01:17:03.586Z,-1.69
2022-11-19T01:18:03.583Z,-1.69
2022-11-19T01:19:03.676Z,-1.69
2022-11-19T01:20:03.633Z,-1.69
2022-11-19T01:21:03.669Z,-1.75
2022-11-19T01:22:03.752Z,-1.75
2022-11-19T01:23:03.831Z,-1.75
2022-11-19T01:24:03.500Z,-1.75
2022-11-19T01:25:03.547Z,-1.81
2022-11-19T01:26:03.501Z,-1.81
2022-11-19T01:27:03.507Z,-1.81
2022-11-19T01:28:04.460Z,-1.81
2022-11-19T01:29:04.392Z,-1.81
2022-11-19T01:30:03.509Z,-1.81
2022-11-19T01:31:03.840Z,-1.81
2022-11-19T01:32:03.748Z,-1.81
2022-11-19T01:33:03.744Z,-1.81
2022-11-19T01:34:03.912Z,-1.81
2022-11-19T01:35:03.900Z,-1.81
2022-11-19T01:36:03.995Z,-1.81
2022-11-19T01:37:03.984Z,-1.75
2022-11-19T01:38:03.917Z,-1.75
2022-11-19T01:39:04.066Z,-1.75
2022-11-19T01:40:04.139Z,-1.81
2022-11-19T01:41:04.164Z,-1.81
2022-11-19T01:42:04.145Z,-1.81
2022-11-19T01:43:04.316Z,-1.88
2022-11-19T01:44:04.229Z,-1.88
2022-11-19T01:45:04.323Z,-1.88
2022-11-19T01:46:04.234Z,-1.88
2022-11-19T01:47:04.307Z,-1.88
2022-11-19T01:48:04.316Z,-1.88
2022-11-19T01:49:04.299Z,-1.94
2022-11-19T01:50:04.482Z,-1.94
2022-11-19T01:51:03.514Z,-1.94
2022-11-19T01:52:03.502Z,-2.00
2022-11-19T01:53:03.444Z,-2.00
2022-11-19T01:54:03.517Z,-1.94
2022-11-19T01:55:03.599Z,-1.94
2022-11-19T01:56:03.503Z,-1.94
2022-11-19T01:57:03.603Z,-1.94
2022-11-19T01:58:03.541Z,-1.94
2022-11-19T01:59:03.605Z,-1.94
2022-11-19T02:00:03.760Z,-1.94
2022-11-19T02:01:03.847Z,-1.94
2022-11-19T02:02:03.996Z,-1.94
2022-11-19T02:03:03.907Z,-2.00
2022-11-19T02:04:03.910Z,-2.00
2022-11-19T02:05:03.845Z,-2.00
2022-11-19T02:06:03.922Z,-1.94
2022-11-19T02:07:04.073Z,-2.00
2022-11-19T02:08:04.023Z,-2.00
2022-11-19T02:09:04.081Z,-2.00
2022-11-19T02:10:04.183Z,-2.00
2022-11-19T02:11:04.145Z,-2.00
2022-11-19T02:12:04.151Z,-2.00
2022-11-19T02:13:04.153Z,-2.06
2022-11-19T02:14:04.176Z,-2.06
2022-11-19T02:15:04.070Z,-2.12
2022-11-19T02:16:04.152Z,-2.12
2022-11-19T02:17:04.307Z,-2.06
2022-11-19T02:18:04.407Z,-2.06
2022-11-19T02:19:04.475Z,-2.06
2022-11-19T02:20:04.521Z,-2.06
2022-11-19T02:21:04.478Z,-2.06
2022-11-19T02:22:04.455Z,-2.06
2022-11-19T02:23:03.514Z,-2.06
2022-11-19T02:24:03.619Z,-2.12
2022-11-19T02:25:03.515Z,-2.12
2022-11-19T02:26:03.672Z,-2.12
2022-11-19T02:27:03.606Z,-2.12
2022-11-19T02:28:03.667Z,-2.19
2022-11-19T02:29:03.769Z,-2.19
2022-11-19T02:30:03.693Z,-2.19
2022-11-19T02:31:03.683Z,-2.19
2022-11-19T02:32:03.773Z,-2.19
2022-11-19T02:33:03.674Z,-2.25
2022-11-19T02:34:04.065Z,-2.25
2022-11-19T02:35:04.163Z,-2.25
2022-11-19T02:36:04.080Z,-2.25
2022-11-19T02:37:04.150Z,-2.25
2022-11-19T02:38:04.157Z,-2.25
2022-11-19T02:39:04.083Z,-2.25
2022-11-19T02:40:04.055Z,-2.25
2022-11-19T02:41:04.162Z,-2.25
2022-11-19T02:42:04.153Z,-2.25
2022-11-19T02:43:04.101Z,-2.25
2022-11-19T02:44:04.157Z,-2.19
2022-11-19T02:45:04.149Z,-2.25
2022-11-19T02:46:04.231Z,-2.25
2022-11-19T02:47:04.242Z,-2.25
2022-11-19T02:48:04.320Z,-2.25
2022-11-19T02:49:04.226Z,-2.25
2022-11-19T02:50:04.220Z,-2.25
2022-11-19T02:51:04.316Z,-2.25
2022-11-19T02:52:04.228Z,-2.31
2022-11-19T02:53:04.239Z,-2.31
2022-11-19T02:54:04.226Z,-2.31
2022-11-19T02:55:04.246Z,-2.31
2022-11-19T02:56:04.326Z,-2.31
2022-11-19T02:57:04.383Z,-2.31
2022-11-19T02:58:04.478Z,-2.31
2022-11-19T02:59:04.391Z,-2.31
2022-11-19T03:00:03.526Z,-2.38
2022-11-19T03:01:03.638Z,-2.38
2022-11-19T03:02:03.525Z,-2.38
2022-11-19T03:03:03.672Z,-2.31
2022-11-19T03:04:03.616Z,-2.31
2022-11-19T03:05:03.669Z,-2.31
2022-11-19T03:06:03.754Z,-2.38
2022-11-19T03:07:03.831Z,-2.38
2022-11-19T03:08:03.758Z,-2.38
2022-11-19T03:09:03.837Z,-2.38
2022-11-19T03:10:03.745Z,-2.31
2022-11-19T03:11:03.923Z,-2.38
2022-11-19T03:12:03.913Z,-2.38
2022-11-19T03:13:03.829Z,-2.38
2022-11-19T03:14:04.487Z,-2.31
2022-11-19T03:15:04.478Z,-2.31
2022-11-19T03:16:04.478Z,-2.38
2022-11-19T03:17:04.484Z,-2.38
2022-11-19T03:18:03.525Z,-2.38
2022-11-19T03:19:03.511Z,-2.31
2022-11-19T03:20:03.598Z,-2.31
2022-11-19T03:21:03.584Z,-2.31
2022-11-19T03:22:03.596Z,-2.31
2022-11-19T03:23:03.748Z,-2.31
2022-11-19T03:24:03.762Z,-2.38
2022-11-19T03:25:03.751Z,-2.38
2022-11-19T03:26:03.764Z,-2.38
2022-11-19T03:27:03.753Z,-2.38
2022-11-19T03:28:03.921Z,-2.38
2022-11-19T03:29:03.915Z,-2.38
2022-11-19T03:30:03.909Z,-2.38
2022-11-19T03:31:03.906Z,-2.38
2022-11-19T03:32:03.818Z,-2.44
2022-11-19T03:33:03.914Z,-2.38
2022-11-19T03:34:03.991Z,-2.38
2022-11-19T03:35:03.984Z,-2.44
2022-11-19T03:36:03.852Z,-2.44
2022-11-19T03:37:03.906Z,-2.44
2022-11-19T03:38:03.940Z,-2.44
2022-11-19T03:39:03.990Z,-2.44
2022-11-19T03:40:03.940Z,-2.44
2022-11-19T03:41:04.077Z,-2.44
2022-11-19T03:42:04.154Z,-2.44
2022-11-19T03:43:04.092Z,-2.44
2022-11-19T03:44:04.074Z,-2.50
2022-11-19T03:45:04.162Z,-2.50
2022-11-19T03:46:04.157Z,-2.50
2022-11-19T03:47:04.226Z,-2.50
2022-11-19T03:48:04.227Z,-2.50
2022-11-19T03:49:04.223Z,-2.50
2022-11-19T03:50:04.239Z,-2.50
2022-11-19T03:51:04.154Z,-2.50
2022-11-19T03:52:04.247Z,-2.50
2022-11-19T03:53:04.651Z,-2.44
2022-11-19T03:54:04.221Z,-2.44
2022-11-19T03:55:04.240Z,-2.44
2022-11-19T03:56:04.309Z,-2.44
2022-11-19T03:57:04.481Z,-2.44
2022-11-19T03:58:04.300Z,-2.44
2022-11-19T03:59:04.391Z,-2.50
2022-11-19T04:00:04.484Z,-2.50
2022-11-19T04:01:04.395Z,-2.50
2022-11-19T04:02:03.651Z,-2.44
2022-11-19T04:03:03.608Z,-2.44
2022-11-19T04:04:03.598Z,-2.38
2022-11-19T04:05:03.537Z,-2.38
2022-11-19T04:06:03.510Z,-2.38
2022-11-19T04:07:03.633Z,-2.38
2022-11-19T04:08:03.602Z,-2.44
2022-11-19T04:09:03.596Z,-2.38
2022-11-19T04:10:03.683Z,-2.38
2022-11-19T04:12:03.608Z,-2.44
2022-11-19T04:13:03.595Z,-2.44
2022-11-19T04:14:03.606Z,-2.44
2022-11-19T04:15:03.589Z,-2.50
2022-11-19T04:16:03.593Z,-2.50
2022-11-19T04:17:03.686Z,-2.44
2022-11-19T04:18:03.693Z,-2.44
2022-11-19T04:19:03.688Z,-2.50
2022-11-19T04:20:03.707Z,-2.50
2022-11-19T04:21:03.679Z,-2.50
2022-11-19T04:22:03.773Z,-2.50
2022-11-19T04:23:03.766Z,-2.50
2022-11-19T04:24:03.763Z,-2.50
2022-11-19T04:25:03.781Z,-2.50
2022-11-19T04:26:03.668Z,-2.50
2022-11-19T04:27:03.841Z,-2.50
2022-11-19T04:28:03.831Z,-2.50
2022-11-19T04:29:03.837Z,-2.56
2022-11-19T04:30:04.009Z,-2.56
2022-11-19T04:31:03.904Z,-2.56
2022-11-19T04:32:04.008Z,-2.56
2022-11-19T04:33:03.979Z,-2.56
2022-11-19T04:34:03.990Z,-2.56
2022-11-19T04:35:03.905Z,-2.56
2022-11-19T04:36:04.062Z,-2.56
2022-11-19T04:37:04.074Z,-2.56
2022-11-19T04:38:03.980Z,-2.56
2022-11-19T04:39:04.160Z,-2.56
2022-11-19T04:40:04.064Z,-2.56
2022-11-19T04:41:04.151Z,-2.56
2022-11-19T04:42:04.230Z,-2.56
2022-11-19T04:43:04.319Z,-2.56
2022-11-19T04:44:04.252Z,-2.56
2022-11-19T04:45:04.245Z,-2.56
2022-11-19T04:46:04.319Z,-2.56
2022-11-19T04:47:04.222Z,-2.56
2022-11-19T04:48:04.304Z,-2.56
2022-11-19T04:49:04.307Z,-2.56
2022-11-19T04:50:04.409Z,-2.56
2022-11-19T04:51:04.319Z,-2.62
2022-11-19T04:52:04.475Z,-2.56
2022-11-19T04:53:04.387Z,-2.56
2022-11-19T04:54:03.440Z,-2.56
2022-11-19T04:55:03.528Z,-2.62
2022-11-19T04:56:03.673Z,-2.56
2022-11-19T04:57:03.583Z,-2.56
2022-11-19T04:58:03.662Z,-2.56
2022-11-19T04:59:03.662Z,-2.62
2022-11-19T05:00:03.665Z,-2.62
2022-11-19T05:01:03.788Z,-2.62
2022-11-19T05:02:03.830Z,-2.56
2022-11-19T05:03:03.826Z,-2.56
2022-11-19T05:04:03.824Z,-2.56
2022-11-19T05:05:03.829Z,-2.56
2022-11-19T05:06:03.741Z,-2.56
2022-11-19T05:07:03.776Z,-2.62
2022-11-19T05:08:03.820Z,-2.56
2022-11-19T05:09:03.844Z,-2.62
2022-11-19T05:10:03.828Z,-2.62
2022-11-19T05:11:03.997Z,-2.62
2022-11-19T05:12:03.917Z,-2.69
2022-11-19T05:13:03.927Z,-2.69
2022-11-19T05:14:03.919Z,-2.69
2022-11-19T05:15:03.834Z,-2.69
2022-11-19T05:16:03.827Z,-2.69
2022-11-19T05:17:03.985Z,-2.69
2022-11-19T05:18:03.987Z,-2.69
2022-11-19T05:19:04.163Z,-2.69
2022-11-19T05:20:04.066Z,-2.69
2022-11-19T05:21:04.068Z,-2.75
2022-11-19T05:22:03.990Z,-2.75
2022-11-19T05:23:03.986Z,-2.81
2022-11-19T05:24:04.066Z,-2.75
2022-11-19T05:25:04.415Z,-2.81
2022-11-19T05:26:05.297Z,-2.75
2022-11-19T05:27:04.342Z,-2.75
2022-11-19T05:28:04.390Z,-2.81
2022-11-19T05:29:04.418Z,-2.81
2022-11-19T05:30:04.392Z,-2.81
2022-11-19T05:31:04.481Z,-2.81
2022-11-19T05:32:04.471Z,-2.81
2022-11-19T05:33:04.489Z,-2.81
2022-11-19T05:34:04.386Z,-2.81
2022-11-19T05:35:03.510Z,-2.81
2022-11-19T05:36:03.514Z,-2.81
2022-11-19T05:37:03.535Z,-2.81
2022-11-19T05:38:03.583Z,-2.81
2022-11-19T05:39:03.665Z,-2.81
2022-11-19T05:40:03.637Z,-2.88
2022-11-19T05:41:03.994Z,-2.81
2022-11-19T05:42:03.988Z,-2.81
2022-11-19T05:43:04.024Z,-2.81
2022-11-19T05:44:03.984Z,-2.81
2022-11-19T05:45:04.067Z,-2.81
2022-11-19T05:46:04.090Z,-2.81
2022-11-19T05:47:04.077Z,-2.81
2022-11-19T05:48:04.146Z,-2.75
2022-11-19T05:49:04.154Z,-2.81
2022-11-19T05:50:04.145Z,-2.81
2022-11-19T05:51:04.227Z,-2.88
2022-11-19T05:52:04.229Z,-2.88
2022-11-19T05:53:04.219Z,-2.81
2022-11-19T05:54:04.429Z,-2.81
2022-11-19T05:55:04.386Z,-2.88
2022-11-19T05:56:04.338Z,-2.88
2022-11-19T05:57:04.321Z,-2.88
2022-11-19T05:58:04.309Z,-2.88
2022-11-19T05:59:04.407Z,-2.88
2022-11-19T06:00:04.303Z,-2.88
2022-11-19T06:01:04.392Z,-2.88
2022-11-19T06:02:04.302Z,-2.88
2022-11-19T06:03:04.439Z,-2.88
2022-11-19T06:04:04.392Z,-2.88
2022-11-19T06:05:04.309Z,-2.88
2022-11-19T06:06:04.227Z,-2.88
2022-11-19T06:07:04.403Z,-2.88
2022-11-19T06:08:04.063Z,-2.88
2022-11-19T06:09:04.158Z,-2.88
2022-11-19T06:10:04.153Z,-2.88
2022-11-19T06:11:05.035Z,-2.88
2022-11-19T06:12:04.155Z,-2.88
2022-11-19T06:13:04.154Z,-2.94
2022-11-19T06:14:04.229Z,-2.94
2022-11-19T06:15:04.239Z,-2.94
2022-11-19T06:16:04.325Z,-2.94
2022-11-19T06:17:04.380Z,-2.94
2022-11-19T06:18:04.391Z,-2.94
2022-11-19T06:19:04.390Z,-2.94
2022-11-19T06:20:04.390Z,-2.94
2022-11-19T06:21:07.027Z,-2.94
2022-11-19T06:22:04.388Z,-2.94
2022-11-19T06:23:04.397Z,-2.94
2022-11-19T06:24:03.506Z,-2.94
2022-11-19T06:25:03.509Z,-2.94
2022-11-19T06:26:03.609Z,-2.94
2022-11-19T06:27:03.500Z,-3.00
2022-11-19T06:28:03.505Z,-2.94
2022-11-19T06:29:03.590Z,-3.00
2022-11-19T06:30:03.753Z,-3.00
2022-11-19T06:31:04.634Z,-3.00
2022-11-19T06:32:03.819Z,-3.00
2022-11-19T06:33:03.903Z,-3.00
2022-11-19T06:34:03.994Z,-3.00
2022-11-19T06:35:04.148Z,-3.06
2022-11-19T06:36:04.260Z,-3.06
2022-11-19T06:37:04.319Z,-3.06
2022-11-19T06:38:04.389Z,-3.06
2022-11-19T06:39:04.457Z,-3.06
2022-11-19T06:40:04.393Z,-3.06
2022-11-19T06:41:04.478Z,-3.06
2022-11-19T06:42:04.379Z,-3.12
2022-11-19T06:43:04.308Z,-3.12
2022-11-19T06:44:04.392Z,-3.12
2022-11-19T06:45:04.392Z,-3.12
2022-11-19T06:46:04.467Z,-3.12
2022-11-19T06:47:03.511Z,-3.12
2022-11-19T06:48:03.589Z,-3.12
2022-11-19T06:49:03.501Z,-3.12
2022-11-19T06:50:03.579Z,-3.12
2022-11-19T06:51:03.588Z,-3.12
2022-11-19T06:52:03.503Z,-3.12
2022-11-19T06:53:03.450Z,-3.12
2022-11-19T06:54:03.677Z,-3.12
2022-11-19T06:55:03.671Z,-3.12
2022-11-19T06:56:03.627Z,-3.12
2022-11-19T06:57:03.750Z,-3.12
2022-11-19T06:58:03.587Z,-3.12
2022-11-19T06:59:03.672Z,-3.12
2022-11-19T07:00:03.651Z,-3.12
2022-11-19T07:01:03.752Z,-3.06
2022-11-19T07:02:03.706Z,-3.06
2022-11-19T07:03:03.687Z,-3.06
2022-11-19T07:04:03.579Z,-3.06
2022-11-19T07:05:03.751Z,-3.06
2022-11-19T07:06:03.676Z,-3.06
2022-11-19T07:07:03.864Z,-3.06
2022-11-19T07:08:03.925Z,-3.06
2022-11-19T07:09:03.835Z,-3.06
2022-11-19T07:10:03.837Z,-3.06
2022-11-19T07:11:03.849Z,-3.00
2022-11-19T07:12:03.840Z,-3.00
2022-11-19T07:13:03.832Z,-3.00
2022-11-19T07:14:03.914Z,-3.00
2022-11-19T07:15:04.458Z,-3.00
2022-11-19T07:16:03.907Z,-3.00
2022-11-19T07:17:04.070Z,-3.00
2022-11-19T07:18:04.000Z,-3.00
2022-11-19T07:19:04.154Z,-3.00
2022-11-19T07:20:04.141Z,-3.00
2022-11-19T07:21:04.228Z,-2.94
2022-11-19T07:22:04.328Z,-2.94
2022-11-19T07:23:04.332Z,-2.94
2022-11-19T07:24:04.318Z,-3.00
2022-11-19T07:25:04.310Z,-2.94
2022-11-19T07:26:04.477Z,-2.94
2022-11-19T07:27:03.507Z,-2.94
2022-11-19T07:28:03.605Z,-2.94
2022-11-19T07:29:04.942Z,-2.88
2022-11-19T07:30:03.905Z,-2.88
2022-11-19T07:31:03.825Z,-2.88
2022-11-19T07:32:03.902Z,-2.88
2022-11-19T07:33:03.993Z,-2.88
2022-11-19T07:34:03.904Z,-2.81
2022-11-19T07:35:03.999Z,-2.81
2022-11-19T07:36:03.988Z,-2.81
2022-11-19T07:37:04.079Z,-2.81
2022-11-19T07:38:04.065Z,-2.81
2022-11-19T07:39:04.157Z,-2.81
2022-11-19T07:40:03.500Z,-2.81
2022-11-19T07:41:03.587Z,-2.75
2022-11-19T07:42:03.511Z,-2.75
2022-11-19T07:43:03.502Z,-2.75
2022-11-19T07:44:03.593Z,-2.75
2022-11-19T07:45:03.588Z,-2.75
2022-11-19T07:46:03.594Z,-2.69
2022-11-19T07:47:04.470Z,-2.75
2022-11-19T07:48:03.513Z,-2.69
2022-11-19T07:49:03.510Z,-2.69
2022-11-19T07:50:03.526Z,-2.69
2022-11-19T07:51:03.585Z,-2.69
2022-11-19T07:52:03.664Z,-2.69
2022-11-19T07:53:03.590Z,-2.69
2022-11-19T07:54:03.604Z,-2.69
2022-11-19T07:55:03.604Z,-2.69
2022-11-19T07:56:03.584Z,-2.62
2022-11-19T07:57:03.587Z,-2.62
2022-11-19T07:58:03.497Z,-2.62
2022-11-19T07:59:03.509Z,-2.62
2022-11-19T08:00:03.585Z,-2.62
2022-11-19T08:01:03.595Z,-2.56
2022-11-19T08:02:03.731Z,-2.56
2022-11-19T08:03:03.663Z,-2.56
2022-11-19T08:04:03.663Z,-2.56
2022-11-19T08:05:03.670Z,-2.56
2022-11-19T08:06:03.704Z,-2.56
2022-11-19T08:07:04.581Z,-2.56
2022-11-19T08:08:03.709Z,-2.56
2022-11-19T08:09:03.670Z,-2.50
2022-11-19T08:10:03.755Z,-2.56
2022-11-19T08:11:03.658Z,-2.50
2022-11-19T08:12:03.905Z,-2.50
2022-11-19T08:13:04.011Z,-2.50
2022-11-19T08:14:04.149Z,-2.50
2022-11-19T08:15:04.154Z,-2.50
2022-11-19T08:16:04.229Z,-2.50
2022-11-19T08:17:04.313Z,-2.44
2022-11-19T08:18:04.307Z,-2.56
2022-11-19T08:19:04.482Z,-2.50
2022-11-19T08:20:04.476Z,-2.56
2022-11-19T08:21:04.391Z,-2.50
2022-11-19T08:22:04.397Z,-2.50
2022-11-19T08:23:04.404Z,-2.50
2022-11-19T08:24:04.387Z,-2.50
2022-11-19T08:25:03.515Z,-2.50
2022-11-19T08:26:03.669Z,-2.44
2022-11-19T08:27:03.759Z,-2.44
2022-11-19T08:28:03.747Z,-2.38
2022-11-19T08:29:03.750Z,-2.38
2022-11-19T08:30:03.743Z,-2.44
2022-11-19T08:31:03.781Z,-2.44
2022-11-19T08:32:03.754Z,-2.38
2022-11-19T08:33:03.827Z,-2.44
2022-11-19T08:34:03.835Z,-2.44
2022-11-19T08:35:03.824Z,-2.44
2022-11-19T08:36:03.826Z,-2.44
2022-11-19T08:37:03.669Z,-2.44
2022-11-19T08:38:03.701Z,-2.44
2022-11-19T08:39:03.744Z,-2.44
2022-11-19T08:40:03.749Z,-2.44
2022-11-19T08:41:03.680Z,-2.44
2022-11-19T08:42:03.677Z,-2.38
2022-11-19T08:43:03.748Z,-2.38
2022-11-19T08:44:03.754Z,-2.31
2022-11-19T08:45:03.829Z,-2.31
2022-11-19T08:46:03.747Z,-2.31
2022-11-19T08:47:03.746Z,-2.31
2022-11-19T08:48:03.741Z,-2.25
2022-11-19T08:49:03.668Z,-2.25
2022-11-19T08:50:03.751Z,-2.25
2022-11-19T08:51:03.748Z,-2.19
2022-11-19T08:52:03.758Z,-2.25
2022-11-19T08:53:03.820Z,-2.19
2022-11-19T08:54:03.912Z,-2.19
2022-11-19T08:55:03.830Z,-2.19
2022-11-19T08:56:03.830Z,-2.19
2022-11-19T08:57:03.913Z,-2.19
2022-11-19T08:58:03.920Z,-2.19
2022-11-19T08:59:04.000Z,-2.19
2022-11-19T09:00:06.340Z,-2.12
2022-11-19T09:01:04.190Z,-2.12
2022-11-19T09:02:04.229Z,-2.12
2022-11-19T09:03:04.227Z,-2.06
2022-11-19T09:04:04.230Z,-2.12
2022-11-19T09:05:04.334Z,-2.06
2022-11-19T09:06:04.231Z,-2.06
2022-11-19T09:07:04.356Z,-2.06
2022-11-19T09:08:04.322Z,-2.12
2022-11-19T09:09:04.477Z,-2.06
2022-11-19T09:10:04.411Z,-2.06
2022-11-19T09:11:04.497Z,-2.06
2022-11-19T09:12:04.482Z,-2.06
2022-11-19T09:13:04.475Z,-2.00
2022-11-19T09:14:03.596Z,-2.00
2022-11-19T09:15:03.599Z,-2.00
2022-11-19T09:16:03.588Z,-2.00
2022-11-19T09:17:03.839Z,-1.94
2022-11-19T09:18:03.778Z,-2.00
2022-11-19T09:19:03.840Z,-2.00
2022-11-19T09:20:03.741Z,-2.00
2022-11-19T09:21:03.841Z,-2.00
2022-11-19T09:22:03.748Z,-2.00
2022-11-19T09:23:03.774Z,-2.00
2022-11-19T09:24:03.749Z,-1.94
2022-11-19T09:25:03.674Z,-1.94
2022-11-19T09:26:03.743Z,-1.94
2022-11-19T09:27:03.666Z,-1.88
2022-11-19T09:28:03.617Z,-1.88
2022-11-19T09:29:03.748Z,-1.88
2022-11-19T09:30:03.778Z,-1.88
2022-11-19T09:31:03.826Z,-1.88
2022-11-19T09:32:03.820Z,-1.88
2022-11-19T09:33:03.583Z,-1.88
2022-11-19T09:34:03.756Z,-1.88
2022-11-19T09:35:03.821Z,-1.88
2022-11-19T09:36:03.842Z,-1.94
2022-11-19T09:37:03.827Z,-1.94
2022-11-19T09:38:03.739Z,-1.94
2022-11-19T09:39:03.825Z,-2.00
2022-11-19T09:40:03.901Z,-2.00
2022-11-19T09:41:03.915Z,-2.00
2022-11-19T09:42:03.827Z,-2.00
2022-11-19T09:43:03.995Z,-2.00
2022-11-19T09:44:03.908Z,-2.00
2022-11-19T09:45:03.512Z,-2.00
2022-11-19T09:46:04.466Z,-2.00
2022-11-19T09:47:03.509Z,-2.00
2022-11-19T09:48:03.591Z,-2.00
2022-11-19T09:49:03.583Z,-2.00
2022-11-19T09:50:03.683Z,-2.00
2022-11-19T09:51:03.621Z,-2.00
2022-11-19T09:52:03.598Z,-2.00
2022-11-19T09:53:03.678Z,-2.00
2022-11-19T09:54:03.666Z,-2.00
2022-11-19T09:55:03.749Z,-2.00
2022-11-19T09:56:03.742Z,-2.00
2022-11-19T09:57:04.578Z,-2.00
2022-11-19T09:58:03.756Z,-2.00
2022-11-19T09:59:03.769Z,-2.00
2022-11-19T10:00:03.745Z,-2.00
2022-11-19T10:01:03.901Z,-2.00
2022-11-19T10:02:03.984Z,-2.00
2022-11-19T10:03:04.100Z,-2.00
2022-11-19T10:04:04.229Z,-2.00
2022-11-19T10:05:04.226Z,-2.00
2022-11-19T10:06:04.226Z,-2.00
2022-11-19T10:07:04.355Z,-2.00
2022-11-19T10:08:04.314Z,-1.94
2022-11-19T10:09:04.466Z,-1.94
2022-11-19T10:10:06.526Z,-1.94
2022-11-19T10:11:03.669Z,-1.94
2022-11-19T10:12:03.752Z,-1.94
2022-11-19T10:13:03.827Z,-1.94
2022-11-19T10:14:03.903Z,-1.94
2022-11-19T10:15:03.912Z,-1.88
2022-11-19T10:16:04.070Z,-1.94
2022-11-19T10:17:04.092Z,-1.94
2022-11-19T10:18:04.064Z,-1.94
2022-11-19T10:19:04.306Z,-1.94
2022-11-19T10:20:04.395Z,-2.00
2022-11-19T10:21:04.392Z,-1.94
2022-11-19T10:22:04.398Z,-1.94
2022-11-19T10:23:03.513Z,-2.00
2022-11-19T10:24:03.579Z,-2.00
2022-11-19T10:25:03.758Z,-2.00
2022-11-19T10:26:03.746Z,-2.06
2022-11-19T10:27:08.444Z,-2.06
2022-11-19T10:28:03.820Z,-2.06
2022-11-19T10:29:03.918Z,-2.12
2022-11-19T10:30:03.902Z,-2.06
2022-11-19T10:31:04.309Z,-2.12
2022-11-19T10:32:04.420Z,-2.12
2022-11-19T10:33:03.739Z,-2.06
2022-11-19T10:34:03.579Z,-2.12
2022-11-19T10:35:03.667Z,-2.06
2022-11-19T10:36:03.742Z,-2.06
2022-11-19T10:37:03.742Z,-2.12
2022-11-19T10:38:04.143Z,-2.12
2022-11-19T10:39:04.356Z,-2.12
2022-11-19T10:40:04.298Z,-2.12
2022-11-19T10:41:04.395Z,-2.12
2022-11-19T10:42:04.385Z,-2.12
2022-11-19T10:43:04.467Z,-2.12
2022-11-19T10:44:03.510Z,-2.12
2022-11-19T10:45:03.585Z,-2.12
2022-11-19T10:46:03.596Z,-2.12
2022-11-19T10:47:03.680Z,-2.06
2022-11-19T10:48:07.604Z,-2.06
2022-11-19T10:49:03.744Z,-2.06
2022-11-19T10:50:08.424Z,-2.06
2022-11-19T10:51:04.556Z,-2.06
2022-11-19T10:52:03.821Z,-2.06
2022-11-19T10:53:04.018Z,-2.00
2022-11-19T10:54:03.910Z,-1.94
2022-11-19T10:55:03.980Z,-2.00
2022-11-19T10:56:04.068Z,-2.00
2022-11-19T10:57:03.983Z,-2.00
2022-11-19T10:58:04.065Z,-1.94
2022-11-19T10:59:04.069Z,-1.94
2022-11-19T11:00:04.061Z,-1.94
2022-11-19T11:01:04.238Z,-1.88
2022-11-19T11:02:04.231Z,-1.88
2022-11-19T11:03:04.237Z,-1.81
2022-11-19T11:04:04.311Z,-1.88
2022-11-19T11:05:04.313Z,-1.81
2022-11-19T11:06:04.464Z,-1.81
2022-11-19T11:07:04.524Z,-1.81
2022-11-19T11:08:04.389Z,-1.81
2022-11-19T11:09:04.314Z,-1.81
2022-11-19T11:10:04.475Z,-1.75
2022-11-19T11:11:04.460Z,-1.69
2022-11-19T11:12:04.465Z,-1.62
2022-11-19T11:13:03.506Z,-1.62
2022-11-19T11:14:03.510Z,-1.62
2022-11-19T11:15:03.600Z,-1.56
2022-11-19T11:16:03.668Z,-1.56
2022-11-19T11:17:03.581Z,-1.56
2022-11-19T11:18:03.580Z,-1.56
2022-11-19T11:19:03.666Z,-1.56
2022-11-19T11:20:03.693Z,-1.56
2022-11-19T11:21:03.661Z,-1.56
2022-11-19T11:22:03.838Z,-1.56
2022-11-19T11:23:03.829Z,-1.50
2022-11-19T11:24:03.907Z,-1.50
2022-11-19T11:25:07.182Z,-1.50
2022-11-19T11:26:04.065Z,-1.44
2022-11-19T11:27:04.222Z,-1.44
2022-11-19T11:28:04.318Z,-1.38
2022-11-19T11:29:04.227Z,-1.38
2022-11-19T11:30:04.316Z,-1.38
2022-11-19T11:31:04.392Z,-1.44
2022-11-19T11:32:04.390Z,-1.44
2022-11-19T11:33:08.748Z,-1.44
2022-11-19T11:34:04.225Z,-1.38
2022-11-19T11:35:07.573Z,-1.31
2022-11-19T11:36:04.462Z,-1.31
2022-11-19T11:37:03.522Z,-1.31
2022-11-19T11:38:03.677Z,-1.25
2022-11-19T11:39:03.584Z,-1.25
2022-11-19T11:40:03.753Z,-1.25
2022-11-19T11:41:41.985Z,-1.25
2022-11-19T11:42:06.159Z,-1.19
2022-11-19T11:43:04.384Z,-1.12
2022-11-19T11:44:03.511Z,-1.12
2022-11-19T11:45:03.595Z,-1.06
2022-11-19T11:46:03.512Z,-1.06
2022-11-19T11:47:03.521Z,-1.06
2022-11-19T11:48:03.778Z,-1.06
2022-11-19T11:49:08.465Z,-1.00
2022-11-19T11:50:03.662Z,-1.00
2022-11-19T11:51:03.833Z,-1.00
2022-11-19T11:52:04.392Z,-1.00
2022-11-19T11:53:04.383Z,-1.00
2022-11-19T11:54:04.381Z,-0.94
2022-11-19T11:55:04.469Z,-0.94
2022-11-19T11:56:03.510Z,-0.94
2022-11-19T11:57:03.591Z,-0.88
2022-11-19T11:58:03.669Z,-0.94
2022-11-19T11:59:03.746Z,-0.94
2022-11-19T12:00:03.666Z,-0.88
2022-11-19T12:01:03.824Z,-0.88
2022-11-19T12:02:03.790Z,-0.88
2022-11-19T12:03:03.756Z,-0.81
2022-11-19T12:04:03.827Z,-0.81
2022-11-19T12:05:03.900Z,-0.81
2022-11-19T12:06:03.994Z,-0.81
2022-11-19T12:07:04.088Z,-0.75
2022-11-19T12:08:04.230Z,-0.69
2022-11-19T12:09:04.226Z,-0.69
2022-11-19T12:10:04.552Z,-0.69
2022-11-19T12:11:04.383Z,-0.69
2022-11-19T12:12:04.489Z,-0.62
2022-11-19T12:13:04.466Z,-0.62
2022-11-19T12:14:06.743Z,-0.62
2022-11-19T12:15:03.587Z,-0.62
2022-11-19T12:16:03.589Z,-0.56
2022-11-19T12:17:03.582Z,-0.56
2022-11-19T12:18:03.666Z,-0.56
2022-11-19T12:19:03.837Z,-0.56
2022-11-19T12:20:03.859Z,-0.56
2022-11-19T12:21:04.385Z,-0.56
2022-11-19T12:22:03.992Z,-0.56
2022-11-19T12:23:03.987Z,-0.56
2022-11-19T12:24:03.902Z,-0.50
2022-11-19T12:25:03.995Z,-0.44
2022-11-19T12:26:03.908Z,-0.44
2022-11-19T12:27:03.908Z,-0.50
2022-11-19T12:28:03.979Z,-0.50
2022-11-19T12:29:03.907Z,-0.50
2022-11-19T12:30:04.067Z,-0.50
2022-11-19T12:31:04.072Z,-0.56
2022-11-19T12:32:04.226Z,-0.50
2022-11-19T12:33:04.141Z,-0.50
2022-11-19T12:34:04.313Z,-0.50
2022-11-19T12:35:04.308Z,-0.44
2022-11-19T12:36:04.483Z,-0.44
2022-11-19T12:37:04.473Z,-0.44
2022-11-19T12:38:03.507Z,-0.44
2022-11-19T12:39:03.517Z,-0.44
2022-11-19T12:40:03.592Z,-0.44
2022-11-19T12:41:03.505Z,-0.44
2022-11-19T12:42:03.589Z,-0.44
2022-11-19T12:43:03.666Z,-0.44
2022-11-19T12:44:03.675Z,-0.44
2022-11-19T12:45:03.667Z,-0.44
2022-11-19T12:46:03.668Z,-0.50
2022-11-19T12:47:03.666Z,-0.44
2022-11-19T12:48:03.663Z,-0.50
2022-11-19T12:49:03.666Z,-0.50
2022-11-19T12:50:03.772Z,-0.50
2022-11-19T12:51:03.740Z,-0.50
2022-11-19T12:52:03.740Z,-0.50
2022-11-19T12:53:03.667Z,-0.44